sensor_id;sensor_type;location;lat;lon;timestamp;temperature;humidity
41630;DHT22;27322;49.488;8.480;2023-08-08T00:01:54;15.50;99.90
41630;DHT22;27322;49.488;8.480;2023-08-08T00:04:19;15.50;99.90
41630;DHT22;27322;49.488;8.480;2023-08-08T00:06:45;15.50;99.90
41630;DHT22;27322;49.488;8.480;2023-08-08T00:09:11;15.40;99.90
41630;DHT22;27322;49.488;8.480;2023-08-08T00:11:36;15.40;99.90
41630;DHT22;27322;49.488;8.480;2023-08-08T00:14:02;15.40;99.90
41630;DHT22;27322;49.488;8.480;2023-08-08T00:16:28;15.30;99.90
41630;DHT22;27322;49.488;8.480;2023-08-08T00:18:53;15.30;99.90
41630;DHT22;27322;49.488;8.480;2023-08-08T00:21:20;15.30;99.90
41630;DHT22;27322;49.488;8.480;2023-08-08T00:23:46;15.30;99.90
41630;DHT22;27322;49.488;8.480;2023-08-08T00:26:11;15.30;99.90
41630;DHT22;27322;49.488;8.480;2023-08-08T00:28:37;15.30;99.90
41630;DHT22;27322;49.488;8.480;2023-08-08T00:31:03;15.30;99.90
41630;DHT22;27322;49.488;8.480;2023-08-08T00:33:29;15.30;99.90
41630;DHT22;27322;49.488;8.480;2023-08-08T00:35:54;15.30;99.90
41630;DHT22;27322;49.488;8.480;2023-08-08T00:38:20;15.30;99.90
41630;DHT22;27322;49.488;8.480;2023-08-08T00:40:45;15.30;99.90
41630;DHT22;27322;49.488;8.480;2023-08-08T00:43:11;15.30;99.90
41630;DHT22;27322;49.488;8.480;2023-08-08T00:45:38;15.20;99.90
41630;DHT22;27322;49.488;8.480;2023-08-08T00:48:04;15.20;99.90
41630;DHT22;27322;49.488;8.480;2023-08-08T00:50:29;15.20;99.90
41630;DHT22;27322;49.488;8.480;2023-08-08T00:52:55;15.20;99.90
41630;DHT22;27322;49.488;8.480;2023-08-08T00:55:23;15.10;99.90
41630;DHT22;27322;49.488;8.480;2023-08-08T00:57:48;15.10;99.90
41630;DHT22;27322;49.488;8.480;2023-08-08T01:00:14;15.10;99.90
41630;DHT22;27322;49.488;8.480;2023-08-08T01:02:40;15.10;99.90
41630;DHT22;27322;49.488;8.480;2023-08-08T01:05:06;15.00;99.90
41630;DHT22;27322;49.488;8.480;2023-08-08T01:07:41;15.00;99.90
41630;DHT22;27322;49.488;8.480;2023-08-08T01:10:15;15.00;99.90
41630;DHT22;27322;49.488;8.480;2023-08-08T01:12:46;15.00;99.90
41630;DHT22;27322;49.488;8.480;2023-08-08T01:15:13;14.90;99.90
41630;DHT22;27322;49.488;8.480;2023-08-08T01:17:39;14.90;99.90
41630;DHT22;27322;49.488;8.480;2023-08-08T01:20:07;14.90;99.90
41630;DHT22;27322;49.488;8.480;2023-08-08T01:22:45;14.80;99.90
41630;DHT22;27322;49.488;8.480;2023-08-08T01:25:13;14.80;99.90
41630;DHT22;27322;49.488;8.480;2023-08-08T01:27:39;14.80;99.90
41630;DHT22;27322;49.488;8.480;2023-08-08T01:30:08;14.80;99.90
41630;DHT22;27322;49.488;8.480;2023-08-08T01:32:34;14.80;99.90
41630;DHT22;27322;49.488;8.480;2023-08-08T01:35:00;14.80;99.90
41630;DHT22;27322;49.488;8.480;2023-08-08T01:37:48;14.80;99.90
41630;DHT22;27322;49.488;8.480;2023-08-08T01:40:17;14.80;99.90
41630;DHT22;27322;49.488;8.480;2023-08-08T01:42:45;14.80;99.90
41630;DHT22;27322;49.488;8.480;2023-08-08T01:45:11;14.80;99.90
41630;DHT22;27322;49.488;8.480;2023-08-08T01:47:37;14.80;99.90
41630;DHT22;27322;49.488;8.480;2023-08-08T01:50:03;14.80;99.90
41630;DHT22;27322;49.488;8.480;2023-08-08T01:52:29;14.80;99.90
41630;DHT22;27322;49.488;8.480;2023-08-08T01:54:54;14.80;99.90
41630;DHT22;27322;49.488;8.480;2023-08-08T01:57:20;14.70;99.90
41630;DHT22;27322;49.488;8.480;2023-08-08T01:59:46;14.70;99.90
41630;DHT22;27322;49.488;8.480;2023-08-08T02:02:12;14.60;99.90
41630;DHT22;27322;49.488;8.480;2023-08-08T02:04:37;14.60;99.90
41630;DHT22;27322;49.488;8.480;2023-08-08T02:07:03;14.60;99.90
41630;DHT22;27322;49.488;8.480;2023-08-08T02:09:29;14.60;99.90
41630;DHT22;27322;49.488;8.480;2023-08-08T02:11:54;14.60;99.90
41630;DHT22;27322;49.488;8.480;2023-08-08T02:14:20;14.50;99.90
41630;DHT22;27322;49.488;8.480;2023-08-08T02:16:45;14.50;99.90
41630;DHT22;27322;49.488;8.480;2023-08-08T02:19:11;14.50;99.90
41630;DHT22;27322;49.488;8.480;2023-08-08T02:21:37;14.50;99.90
41630;DHT22;27322;49.488;8.480;2023-08-08T02:24:02;14.50;99.90
41630;DHT22;27322;49.488;8.480;2023-08-08T02:26:31;14.50;99.90
41630;DHT22;27322;49.488;8.480;2023-08-08T02:28:57;14.40;99.90
41630;DHT22;27322;49.488;8.480;2023-08-08T02:31:22;14.40;99.90
41630;DHT22;27322;49.488;8.480;2023-08-08T02:33:51;14.40;99.90
41630;DHT22;27322;49.488;8.480;2023-08-08T02:36:17;14.40;99.90
41630;DHT22;27322;49.488;8.480;2023-08-08T02:38:44;14.40;99.90
41630;DHT22;27322;49.488;8.480;2023-08-08T02:41:09;14.40;99.90
41630;DHT22;27322;49.488;8.480;2023-08-08T02:43:35;14.30;99.90
41630;DHT22;27322;49.488;8.480;2023-08-08T02:46:01;14.30;99.90
41630;DHT22;27322;49.488;8.480;2023-08-08T02:48:27;14.30;99.90
41630;DHT22;27322;49.488;8.480;2023-08-08T02:50:53;14.30;99.90
41630;DHT22;27322;49.488;8.480;2023-08-08T02:53:18;14.30;99.90
41630;DHT22;27322;49.488;8.480;2023-08-08T02:55:44;14.30;99.90
41630;DHT22;27322;49.488;8.480;2023-08-08T02:58:09;14.30;99.90
41630;DHT22;27322;49.488;8.480;2023-08-08T03:00:35;14.30;99.90
41630;DHT22;27322;49.488;8.480;2023-08-08T03:03:00;14.30;99.90
41630;DHT22;27322;49.488;8.480;2023-08-08T03:05:26;14.30;99.90
41630;DHT22;27322;49.488;8.480;2023-08-08T03:07:51;14.30;99.90
41630;DHT22;27322;49.488;8.480;2023-08-08T03:10:17;14.30;99.90
41630;DHT22;27322;49.488;8.480;2023-08-08T03:12:43;14.30;99.90
41630;DHT22;27322;49.488;8.480;2023-08-08T03:15:08;14.30;99.90
41630;DHT22;27322;49.488;8.480;2023-08-08T03:17:35;14.30;99.90
41630;DHT22;27322;49.488;8.480;2023-08-08T03:20:01;14.30;99.90
41630;DHT22;27322;49.488;8.480;2023-08-08T03:22:28;14.30;99.90
41630;DHT22;27322;49.488;8.480;2023-08-08T03:24:53;14.30;99.90
41630;DHT22;27322;49.488;8.480;2023-08-08T03:27:19;14.30;99.90
41630;DHT22;27322;49.488;8.480;2023-08-08T03:29:45;14.30;99.90
41630;DHT22;27322;49.488;8.480;2023-08-08T03:32:10;14.30;99.90
41630;DHT22;27322;49.488;8.480;2023-08-08T03:34:36;14.30;99.90
41630;DHT22;27322;49.488;8.480;2023-08-08T03:37:01;14.30;99.90
41630;DHT22;27322;49.488;8.480;2023-08-08T03:39:27;14.30;99.90
41630;DHT22;27322;49.488;8.480;2023-08-08T03:41:53;14.30;99.90
41630;DHT22;27322;49.488;8.480;2023-08-08T03:44:18;14.30;99.90
41630;DHT22;27322;49.488;8.480;2023-08-08T03:46:44;14.20;99.90
41630;DHT22;27322;49.488;8.480;2023-08-08T03:49:10;14.20;99.90
41630;DHT22;27322;49.488;8.480;2023-08-08T03:51:35;14.20;99.90
41630;DHT22;27322;49.488;8.480;2023-08-08T03:54:01;14.20;99.90
41630;DHT22;27322;49.488;8.480;2023-08-08T03:56:26;14.20;99.90
41630;DHT22;27322;49.488;8.480;2023-08-08T03:58:52;14.20;99.90
41630;DHT22;27322;49.488;8.480;2023-08-08T04:01:18;14.20;99.90
41630;DHT22;27322;49.488;8.480;2023-08-08T04:03:44;14.20;99.90
41630;DHT22;27322;49.488;8.480;2023-08-08T04:06:09;14.20;99.90
41630;DHT22;27322;49.488;8.480;2023-08-08T04:08:35;14.20;99.90
41630;DHT22;27322;49.488;8.480;2023-08-08T04:11:00;14.20;99.90
41630;DHT22;27322;49.488;8.480;2023-08-08T04:13:26;14.20;99.90
41630;DHT22;27322;49.488;8.480;2023-08-08T04:15:52;14.10;99.90
41630;DHT22;27322;49.488;8.480;2023-08-08T04:18:18;14.10;99.90
41630;DHT22;27322;49.488;8.480;2023-08-08T04:20:45;14.10;99.90
41630;DHT22;27322;49.488;8.480;2023-08-08T04:23:12;14.10;99.90
41630;DHT22;27322;49.488;8.480;2023-08-08T04:25:38;14.10;99.90
41630;DHT22;27322;49.488;8.480;2023-08-08T04:28:04;14.10;99.90
41630;DHT22;27322;49.488;8.480;2023-08-08T04:30:29;14.10;99.90
41630;DHT22;27322;49.488;8.480;2023-08-08T04:32:55;14.10;99.90
41630;DHT22;27322;49.488;8.480;2023-08-08T04:35:20;14.10;99.90
41630;DHT22;27322;49.488;8.480;2023-08-08T04:37:46;14.00;99.90
41630;DHT22;27322;49.488;8.480;2023-08-08T04:40:12;14.00;99.90
41630;DHT22;27322;49.488;8.480;2023-08-08T04:42:37;14.00;99.90
41630;DHT22;27322;49.488;8.480;2023-08-08T04:45:03;14.00;99.90
41630;DHT22;27322;49.488;8.480;2023-08-08T04:47:29;14.00;99.90
41630;DHT22;27322;49.488;8.480;2023-08-08T04:49:55;14.00;99.90
41630;DHT22;27322;49.488;8.480;2023-08-08T04:52:20;14.00;99.90
41630;DHT22;27322;49.488;8.480;2023-08-08T04:54:46;14.00;99.90
41630;DHT22;27322;49.488;8.480;2023-08-08T04:57:11;14.00;99.90
41630;DHT22;27322;49.488;8.480;2023-08-08T04:59:37;14.00;99.90
41630;DHT22;27322;49.488;8.480;2023-08-08T05:02:02;14.00;99.90
41630;DHT22;27322;49.488;8.480;2023-08-08T05:04:28;14.10;99.90
41630;DHT22;27322;49.488;8.480;2023-08-08T05:06:54;14.10;99.90
41630;DHT22;27322;49.488;8.480;2023-08-08T05:09:19;14.10;99.90
41630;DHT22;27322;49.488;8.480;2023-08-08T05:11:46;14.10;99.90
41630;DHT22;27322;49.488;8.480;2023-08-08T05:14:11;14.10;99.90
41630;DHT22;27322;49.488;8.480;2023-08-08T05:16:37;14.10;99.90
41630;DHT22;27322;49.488;8.480;2023-08-08T05:19:03;14.20;99.90
41630;DHT22;27322;49.488;8.480;2023-08-08T05:21:28;14.20;99.90
41630;DHT22;27322;49.488;8.480;2023-08-08T05:23:54;14.20;99.90
41630;DHT22;27322;49.488;8.480;2023-08-08T05:26:20;14.20;99.90
41630;DHT22;27322;49.488;8.480;2023-08-08T05:28:45;14.30;99.90
41630;DHT22;27322;49.488;8.480;2023-08-08T05:31:11;14.30;99.90
41630;DHT22;27322;49.488;8.480;2023-08-08T05:33:36;14.30;99.90
41630;DHT22;27322;49.488;8.480;2023-08-08T05:36:02;14.30;99.90
41630;DHT22;27322;49.488;8.480;2023-08-08T05:38:28;14.40;99.90
41630;DHT22;27322;49.488;8.480;2023-08-08T05:40:53;14.40;99.90
41630;DHT22;27322;49.488;8.480;2023-08-08T05:43:19;14.40;99.90
41630;DHT22;27322;49.488;8.480;2023-08-08T05:45:46;14.50;99.90
41630;DHT22;27322;49.488;8.480;2023-08-08T05:48:11;14.50;99.90
41630;DHT22;27322;49.488;8.480;2023-08-08T05:50:40;14.50;99.90
41630;DHT22;27322;49.488;8.480;2023-08-08T05:53:06;14.50;99.90
41630;DHT22;27322;49.488;8.480;2023-08-08T05:55:32;14.60;99.90
41630;DHT22;27322;49.488;8.480;2023-08-08T05:57:58;14.60;99.90
41630;DHT22;27322;49.488;8.480;2023-08-08T06:00:24;14.70;99.90
41630;DHT22;27322;49.488;8.480;2023-08-08T06:02:49;14.70;99.90
41630;DHT22;27322;49.488;8.480;2023-08-08T06:05:17;14.80;99.90
41630;DHT22;27322;49.488;8.480;2023-08-08T06:07:42;14.80;99.90
41630;DHT22;27322;49.488;8.480;2023-08-08T06:10:10;14.80;99.90
41630;DHT22;27322;49.488;8.480;2023-08-08T06:12:35;14.90;99.90
41630;DHT22;27322;49.488;8.480;2023-08-08T06:15:01;14.90;99.90
41630;DHT22;27322;49.488;8.480;2023-08-08T06:17:27;15.00;99.90
41630;DHT22;27322;49.488;8.480;2023-08-08T06:19:53;15.00;99.90
41630;DHT22;27322;49.488;8.480;2023-08-08T06:22:19;15.10;99.90
41630;DHT22;27322;49.488;8.480;2023-08-08T06:24:45;15.10;99.90
41630;DHT22;27322;49.488;8.480;2023-08-08T06:27:12;15.20;99.90
41630;DHT22;27322;49.488;8.480;2023-08-08T06:29:38;15.30;99.90
41630;DHT22;27322;49.488;8.480;2023-08-08T06:32:03;15.30;99.90
41630;DHT22;27322;49.488;8.480;2023-08-08T06:34:29;15.40;99.90
41630;DHT22;27322;49.488;8.480;2023-08-08T06:36:54;15.50;99.90
41630;DHT22;27322;49.488;8.480;2023-08-08T06:39:20;15.50;99.90
41630;DHT22;27322;49.488;8.480;2023-08-08T06:41:47;15.60;99.90
41630;DHT22;27322;49.488;8.480;2023-08-08T06:44:13;15.60;99.90
41630;DHT22;27322;49.488;8.480;2023-08-08T06:46:38;15.60;99.90
41630;DHT22;27322;49.488;8.480;2023-08-08T06:49:04;15.70;99.90
41630;DHT22;27322;49.488;8.480;2023-08-08T06:51:30;15.70;99.90
41630;DHT22;27322;49.488;8.480;2023-08-08T06:53:56;15.80;99.90
41630;DHT22;27322;49.488;8.480;2023-08-08T06:56:21;15.90;99.90
41630;DHT22;27322;49.488;8.480;2023-08-08T06:58:47;15.90;99.90
41630;DHT22;27322;49.488;8.480;2023-08-08T07:01:13;16.00;99.90
41630;DHT22;27322;49.488;8.480;2023-08-08T07:03:39;16.00;99.90
41630;DHT22;27322;49.488;8.480;2023-08-08T07:06:05;16.10;99.90
41630;DHT22;27322;49.488;8.480;2023-08-08T07:08:31;16.10;99.90
41630;DHT22;27322;49.488;8.480;2023-08-08T07:10:57;16.20;99.90
41630;DHT22;27322;49.488;8.480;2023-08-08T07:13:23;16.20;99.90
41630;DHT22;27322;49.488;8.480;2023-08-08T07:15:49;16.30;99.90
41630;DHT22;27322;49.488;8.480;2023-08-08T07:18:15;16.30;99.90
41630;DHT22;27322;49.488;8.480;2023-08-08T07:20:40;16.40;99.90
41630;DHT22;27322;49.488;8.480;2023-08-08T07:23:06;16.40;99.90
41630;DHT22;27322;49.488;8.480;2023-08-08T07:25:32;16.40;99.90
41630;DHT22;27322;49.488;8.480;2023-08-08T07:27:57;16.50;99.90
41630;DHT22;27322;49.488;8.480;2023-08-08T07:30:23;16.60;99.90
41630;DHT22;27322;49.488;8.480;2023-08-08T07:32:51;16.60;99.90
41630;DHT22;27322;49.488;8.480;2023-08-08T07:35:16;16.70;99.90
41630;DHT22;27322;49.488;8.480;2023-08-08T07:37:43;16.70;99.90
41630;DHT22;27322;49.488;8.480;2023-08-08T07:40:18;16.80;99.90
41630;DHT22;27322;49.488;8.480;2023-08-08T07:42:45;16.90;99.90
41630;DHT22;27322;49.488;8.480;2023-08-08T07:45:11;16.90;99.90
41630;DHT22;27322;49.488;8.480;2023-08-08T07:47:36;17.00;99.90
41630;DHT22;27322;49.488;8.480;2023-08-08T07:50:02;17.00;99.90
41630;DHT22;27322;49.488;8.480;2023-08-08T07:52:27;17.10;99.90
41630;DHT22;27322;49.488;8.480;2023-08-08T07:54:53;17.10;99.90
41630;DHT22;27322;49.488;8.480;2023-08-08T07:57:19;17.20;99.90
41630;DHT22;27322;49.488;8.480;2023-08-08T07:59:44;17.20;99.90
41630;DHT22;27322;49.488;8.480;2023-08-08T08:02:10;17.20;99.90
41630;DHT22;27322;49.488;8.480;2023-08-08T08:04:35;17.30;99.90
41630;DHT22;27322;49.488;8.480;2023-08-08T08:07:02;17.40;99.90
41630;DHT22;27322;49.488;8.480;2023-08-08T08:09:28;17.40;99.90
41630;DHT22;27322;49.488;8.480;2023-08-08T08:11:54;17.50;99.90
41630;DHT22;27322;49.488;8.480;2023-08-08T08:14:20;17.50;99.90
41630;DHT22;27322;49.488;8.480;2023-08-08T08:16:46;17.60;99.90
41630;DHT22;27322;49.488;8.480;2023-08-08T08:19:12;17.60;99.90
41630;DHT22;27322;49.488;8.480;2023-08-08T08:21:37;17.70;99.90
41630;DHT22;27322;49.488;8.480;2023-08-08T08:24:03;17.70;99.90
41630;DHT22;27322;49.488;8.480;2023-08-08T08:26:29;17.80;99.90
41630;DHT22;27322;49.488;8.480;2023-08-08T08:28:54;17.80;99.90
41630;DHT22;27322;49.488;8.480;2023-08-08T08:31:20;17.80;99.90
41630;DHT22;27322;49.488;8.480;2023-08-08T08:33:46;17.90;99.90
41630;DHT22;27322;49.488;8.480;2023-08-08T08:36:12;17.90;99.90
41630;DHT22;27322;49.488;8.480;2023-08-08T08:38:37;18.00;99.90
41630;DHT22;27322;49.488;8.480;2023-08-08T08:41:04;18.00;99.90
41630;DHT22;27322;49.488;8.480;2023-08-08T08:43:31;18.10;99.90
41630;DHT22;27322;49.488;8.480;2023-08-08T08:46:00;18.10;99.90
41630;DHT22;27322;49.488;8.480;2023-08-08T08:48:27;18.20;99.90
41630;DHT22;27322;49.488;8.480;2023-08-08T08:51:00;18.20;99.90
41630;DHT22;27322;49.488;8.480;2023-08-08T08:53:26;18.30;99.90
41630;DHT22;27322;49.488;8.480;2023-08-08T08:55:52;18.30;99.90
41630;DHT22;27322;49.488;8.480;2023-08-08T08:58:19;18.30;99.90
41630;DHT22;27322;49.488;8.480;2023-08-08T09:00:46;18.40;99.90
41630;DHT22;27322;49.488;8.480;2023-08-08T09:03:13;18.40;99.90
41630;DHT22;27322;49.488;8.480;2023-08-08T09:05:40;18.40;99.90
41630;DHT22;27322;49.488;8.480;2023-08-08T09:08:07;18.50;99.90
41630;DHT22;27322;49.488;8.480;2023-08-08T09:10:33;18.50;99.90
41630;DHT22;27322;49.488;8.480;2023-08-08T09:13:00;18.50;99.90
41630;DHT22;27322;49.488;8.480;2023-08-08T09:15:31;18.60;99.90
41630;DHT22;27322;49.488;8.480;2023-08-08T09:17:57;18.60;99.90
41630;DHT22;27322;49.488;8.480;2023-08-08T09:20:23;18.60;99.90
41630;DHT22;27322;49.488;8.480;2023-08-08T09:22:51;18.70;99.90
41630;DHT22;27322;49.488;8.480;2023-08-08T09:25:18;18.70;99.90
41630;DHT22;27322;49.488;8.480;2023-08-08T09:27:44;18.80;99.90
41630;DHT22;27322;49.488;8.480;2023-08-08T09:30:10;18.90;99.90
41630;DHT22;27322;49.488;8.480;2023-08-08T09:32:37;18.90;99.90
41630;DHT22;27322;49.488;8.480;2023-08-08T09:35:03;18.90;99.90
41630;DHT22;27322;49.488;8.480;2023-08-08T09:37:29;19.00;99.90
41630;DHT22;27322;49.488;8.480;2023-08-08T09:39:58;19.00;99.90
41630;DHT22;27322;49.488;8.480;2023-08-08T09:42:26;19.10;99.90
41630;DHT22;27322;49.488;8.480;2023-08-08T09:44:52;19.20;99.90
41630;DHT22;27322;49.488;8.480;2023-08-08T09:47:18;19.30;99.90
41630;DHT22;27322;49.488;8.480;2023-08-08T09:49:44;19.40;99.90
41630;DHT22;27322;49.488;8.480;2023-08-08T09:52:11;19.40;99.90
41630;DHT22;27322;49.488;8.480;2023-08-08T09:54:38;19.50;99.90
41630;DHT22;27322;49.488;8.480;2023-08-08T09:57:06;19.60;99.90
41630;DHT22;27322;49.488;8.480;2023-08-08T09:59:32;19.70;99.90
41630;DHT22;27322;49.488;8.480;2023-08-08T10:01:57;19.80;99.90
41630;DHT22;27322;49.488;8.480;2023-08-08T10:04:24;19.80;99.90
41630;DHT22;27322;49.488;8.480;2023-08-08T10:06:50;20.00;99.90
41630;DHT22;27322;49.488;8.480;2023-08-08T10:09:15;20.10;99.90
41630;DHT22;27322;49.488;8.480;2023-08-08T10:11:42;20.20;99.90
41630;DHT22;27322;49.488;8.480;2023-08-08T10:14:10;20.30;99.90
41630;DHT22;27322;49.488;8.480;2023-08-08T10:16:42;20.20;99.90
41630;DHT22;27322;49.488;8.480;2023-08-08T10:19:08;20.20;99.90
41630;DHT22;27322;49.488;8.480;2023-08-08T10:21:36;20.20;99.90
41630;DHT22;27322;49.488;8.480;2023-08-08T10:24:07;20.20;99.90
41630;DHT22;27322;49.488;8.480;2023-08-08T10:26:33;20.20;99.90
41630;DHT22;27322;49.488;8.480;2023-08-08T10:29:00;20.10;99.90
41630;DHT22;27322;49.488;8.480;2023-08-08T10:31:27;20.00;99.90
41630;DHT22;27322;49.488;8.480;2023-08-08T10:34:05;20.00;99.90
41630;DHT22;27322;49.488;8.480;2023-08-08T10:36:51;20.00;99.90
41630;DHT22;27322;49.488;8.480;2023-08-08T10:39:21;19.90;99.90
41630;DHT22;27322;49.488;8.480;2023-08-08T10:41:48;19.90;99.90
41630;DHT22;27322;49.488;8.480;2023-08-08T10:44:22;19.90;99.90
41630;DHT22;27322;49.488;8.480;2023-08-08T10:46:49;19.90;99.90
41630;DHT22;27322;49.488;8.480;2023-08-08T10:49:17;19.90;99.90
41630;DHT22;27322;49.488;8.480;2023-08-08T10:51:45;20.00;99.80
41630;DHT22;27322;49.488;8.480;2023-08-08T10:54:18;20.00;99.90
41630;DHT22;27322;49.488;8.480;2023-08-08T10:56:49;20.10;99.90
41630;DHT22;27322;49.488;8.480;2023-08-08T10:59:17;20.10;99.60
41630;DHT22;27322;49.488;8.480;2023-08-08T11:01:45;20.20;99.40
41630;DHT22;27322;49.488;8.480;2023-08-08T11:04:12;20.20;99.20
41630;DHT22;27322;49.488;8.480;2023-08-08T11:06:38;20.20;98.50
41630;DHT22;27322;49.488;8.480;2023-08-08T11:09:07;20.20;98.10
41630;DHT22;27322;49.488;8.480;2023-08-08T11:11:40;20.30;98.50
41630;DHT22;27322;49.488;8.480;2023-08-08T11:14:14;20.20;98.90
41630;DHT22;27322;49.488;8.480;2023-08-08T11:16:41;20.20;96.20
41630;DHT22;27322;49.488;8.480;2023-08-08T11:19:07;20.20;96.50
41630;DHT22;27322;49.488;8.480;2023-08-08T11:21:34;20.10;96.30
41630;DHT22;27322;49.488;8.480;2023-08-08T11:24:02;20.10;96.80
41630;DHT22;27322;49.488;8.480;2023-08-08T11:26:28;20.00;96.70
41630;DHT22;27322;49.488;8.480;2023-08-08T11:28:57;20.00;97.90
41630;DHT22;27322;49.488;8.480;2023-08-08T11:31:24;20.10;97.80
41630;DHT22;27322;49.488;8.480;2023-08-08T11:33:50;20.10;97.50
41630;DHT22;27322;49.488;8.480;2023-08-08T11:36:16;20.10;98.30
41630;DHT22;27322;49.488;8.480;2023-08-08T11:38:42;20.10;97.80
41630;DHT22;27322;49.488;8.480;2023-08-08T11:41:10;20.10;96.00
41630;DHT22;27322;49.488;8.480;2023-08-08T11:43:39;20.10;95.50
41630;DHT22;27322;49.488;8.480;2023-08-08T11:46:10;20.10;95.90
41630;DHT22;27322;49.488;8.480;2023-08-08T11:48:37;20.00;96.80
41630;DHT22;27322;49.488;8.480;2023-08-08T11:51:04;20.00;96.00
41630;DHT22;27322;49.488;8.480;2023-08-08T11:53:30;20.00;95.70
41630;DHT22;27322;49.488;8.480;2023-08-08T11:55:56;20.10;96.40
41630;DHT22;27322;49.488;8.480;2023-08-08T11:58:24;20.10;96.40
41630;DHT22;27322;49.488;8.480;2023-08-08T12:00:51;20.00;96.00
41630;DHT22;27322;49.488;8.480;2023-08-08T12:03:18;20.10;95.50
41630;DHT22;27322;49.488;8.480;2023-08-08T12:05:46;20.10;95.30
41630;DHT22;27322;49.488;8.480;2023-08-08T12:08:12;20.10;94.50
41630;DHT22;27322;49.488;8.480;2023-08-08T12:10:38;20.10;94.30
41630;DHT22;27322;49.488;8.480;2023-08-08T12:13:04;20.20;94.60
41630;DHT22;27322;49.488;8.480;2023-08-08T12:15:31;20.20;95.00
41630;DHT22;27322;49.488;8.480;2023-08-08T12:17:58;20.20;94.20
41630;DHT22;27322;49.488;8.480;2023-08-08T12:20:27;20.30;94.00
41630;DHT22;27322;49.488;8.480;2023-08-08T12:22:54;20.30;94.60
41630;DHT22;27322;49.488;8.480;2023-08-08T12:25:20;20.20;94.80
41630;DHT22;27322;49.488;8.480;2023-08-08T12:27:46;20.20;94.90
41630;DHT22;27322;49.488;8.480;2023-08-08T12:30:11;20.20;95.30
41630;DHT22;27322;49.488;8.480;2023-08-08T12:32:37;20.20;95.10
41630;DHT22;27322;49.488;8.480;2023-08-08T12:35:03;20.20;95.90
41630;DHT22;27322;49.488;8.480;2023-08-08T12:37:29;20.20;93.00
41630;DHT22;27322;49.488;8.480;2023-08-08T12:39:54;20.30;93.30
41630;DHT22;27322;49.488;8.480;2023-08-08T12:42:20;20.30;93.10
41630;DHT22;27322;49.488;8.480;2023-08-08T12:44:46;20.30;94.10
41630;DHT22;27322;49.488;8.480;2023-08-08T12:47:12;20.30;94.20
41630;DHT22;27322;49.488;8.480;2023-08-08T12:49:38;20.30;94.30
41630;DHT22;27322;49.488;8.480;2023-08-08T12:52:04;20.40;92.90
41630;DHT22;27322;49.488;8.480;2023-08-08T12:54:30;20.40;91.80
41630;DHT22;27322;49.488;8.480;2023-08-08T12:56:55;20.40;91.80
41630;DHT22;27322;49.488;8.480;2023-08-08T12:59:21;20.40;91.00
41630;DHT22;27322;49.488;8.480;2023-08-08T13:01:47;20.40;91.20
41630;DHT22;27322;49.488;8.480;2023-08-08T13:04:12;20.40;91.10
41630;DHT22;27322;49.488;8.480;2023-08-08T13:06:38;20.40;91.60
41630;DHT22;27322;49.488;8.480;2023-08-08T13:09:04;20.40;91.70
41630;DHT22;27322;49.488;8.480;2023-08-08T13:11:29;20.40;91.70
41630;DHT22;27322;49.488;8.480;2023-08-08T13:13:55;20.40;91.00
41630;DHT22;27322;49.488;8.480;2023-08-08T13:16:21;20.50;90.80
41630;DHT22;27322;49.488;8.480;2023-08-08T13:18:46;20.50;91.50
41630;DHT22;27322;49.488;8.480;2023-08-08T13:21:12;20.50;91.40
41630;DHT22;27322;49.488;8.480;2023-08-08T13:23:40;20.50;91.30
41630;DHT22;27322;49.488;8.480;2023-08-08T13:26:05;20.50;90.80
41630;DHT22;27322;49.488;8.480;2023-08-08T13:28:31;20.50;90.90
41630;DHT22;27322;49.488;8.480;2023-08-08T13:30:57;20.50;91.00
41630;DHT22;27322;49.488;8.480;2023-08-08T13:33:22;20.50;91.00
41630;DHT22;27322;49.488;8.480;2023-08-08T13:35:48;20.50;91.20
41630;DHT22;27322;49.488;8.480;2023-08-08T13:38:14;20.50;90.40
41630;DHT22;27322;49.488;8.480;2023-08-08T13:40:43;20.50;91.00
41630;DHT22;27322;49.488;8.480;2023-08-08T13:43:09;20.50;91.00
41630;DHT22;27322;49.488;8.480;2023-08-08T13:45:35;20.50;91.40
41630;DHT22;27322;49.488;8.480;2023-08-08T13:48:00;20.50;91.90
41630;DHT22;27322;49.488;8.480;2023-08-08T13:50:26;20.50;92.40
41630;DHT22;27322;49.488;8.480;2023-08-08T13:52:52;20.50;92.90
41630;DHT22;27322;49.488;8.480;2023-08-08T13:55:18;20.50;92.30
41630;DHT22;27322;49.488;8.480;2023-08-08T13:57:44;20.50;92.20
41630;DHT22;27322;49.488;8.480;2023-08-08T14:00:10;20.50;92.50
41630;DHT22;27322;49.488;8.480;2023-08-08T14:02:38;20.50;93.20
41630;DHT22;27322;49.488;8.480;2023-08-08T14:05:04;20.50;92.60
41630;DHT22;27322;49.488;8.480;2023-08-08T14:07:32;20.60;92.10
41630;DHT22;27322;49.488;8.480;2023-08-08T14:09:59;20.60;91.60
41630;DHT22;27322;49.488;8.480;2023-08-08T14:12:24;20.60;91.90
41630;DHT22;27322;49.488;8.480;2023-08-08T14:14:50;20.60;92.30
41630;DHT22;27322;49.488;8.480;2023-08-08T14:17:16;20.50;91.70
41630;DHT22;27322;49.488;8.480;2023-08-08T14:19:41;20.50;91.90
41630;DHT22;27322;49.488;8.480;2023-08-08T14:22:07;20.50;92.60
41630;DHT22;27322;49.488;8.480;2023-08-08T14:24:32;20.50;92.80
41630;DHT22;27322;49.488;8.480;2023-08-08T14:26:58;20.50;92.80
41630;DHT22;27322;49.488;8.480;2023-08-08T14:29:23;20.50;93.00
41630;DHT22;27322;49.488;8.480;2023-08-08T14:31:49;20.50;92.60
41630;DHT22;27322;49.488;8.480;2023-08-08T14:34:15;20.50;92.80
41630;DHT22;27322;49.488;8.480;2023-08-08T14:36:40;20.60;91.60
41630;DHT22;27322;49.488;8.480;2023-08-08T14:39:07;20.60;91.30
41630;DHT22;27322;49.488;8.480;2023-08-08T14:41:33;20.60;92.30
41630;DHT22;27322;49.488;8.480;2023-08-08T14:43:58;20.60;92.30
41630;DHT22;27322;49.488;8.480;2023-08-08T14:46:24;20.60;92.50
41630;DHT22;27322;49.488;8.480;2023-08-08T14:48:50;20.50;92.00
41630;DHT22;27322;49.488;8.480;2023-08-08T14:51:15;20.50;92.50
41630;DHT22;27322;49.488;8.480;2023-08-08T14:53:45;20.50;92.80
41630;DHT22;27322;49.488;8.480;2023-08-08T14:56:10;20.50;93.00
41630;DHT22;27322;49.488;8.480;2023-08-08T14:58:36;20.30;93.30
41630;DHT22;27322;49.488;8.480;2023-08-08T15:01:02;20.40;92.80
41630;DHT22;27322;49.488;8.480;2023-08-08T15:03:28;20.30;92.90
41630;DHT22;27322;49.488;8.480;2023-08-08T15:05:53;20.30;93.60
41630;DHT22;27322;49.488;8.480;2023-08-08T15:08:19;20.30;93.90
41630;DHT22;27322;49.488;8.480;2023-08-08T15:10:47;20.20;93.90
41630;DHT22;27322;49.488;8.480;2023-08-08T15:13:12;20.20;94.10
41630;DHT22;27322;49.488;8.480;2023-08-08T15:15:38;20.20;94.50
41630;DHT22;27322;49.488;8.480;2023-08-08T15:18:03;20.20;94.40
41630;DHT22;27322;49.488;8.480;2023-08-08T15:20:29;20.20;94.60
41630;DHT22;27322;49.488;8.480;2023-08-08T15:22:56;20.20;94.70
41630;DHT22;27322;49.488;8.480;2023-08-08T15:25:21;20.20;94.30